sensor_id;sensor_type;location;lat;lon;timestamp;P1;durP1;ratioP1;P2;durP2;ratioP2
32333;SDS011;18810;53.040;8.850;2023-08-24T00:01:16;7.20;;;2.63;;
32333;SDS011;18810;53.040;8.850;2023-08-24T00:03:43;4.07;;;3.05;;
32333;SDS011;18810;53.040;8.850;2023-08-24T00:06:11;6.38;;;3.10;;
32333;SDS011;18810;53.040;8.850;2023-08-24T00:08:37;7.13;;;3.33;;
32333;SDS011;18810;53.040;8.850;2023-08-24T00:11:02;7.45;;;3.10;;
32333;SDS011;18810;53.040;8.850;2023-08-24T00:13:29;4.10;;;2.70;;
32333;SDS011;18810;53.040;8.850;2023-08-24T00:15:55;5.90;;;2.83;;
32333;SDS011;18810;53.040;8.850;2023-08-24T00:18:21;4.40;;;3.03;;
32333;SDS011;18810;53.040;8.850;2023-08-24T00:20:47;5.47;;;3.17;;
32333;SDS011;18810;53.040;8.850;2023-08-24T00:23:14;7.00;;;3.83;;
32333;SDS011;18810;53.040;8.850;2023-08-24T00:25:39;4.70;;;3.40;;
32333;SDS011;18810;53.040;8.850;2023-08-24T00:28:08;6.03;;;3.63;;
32333;SDS011;18810;53.040;8.850;2023-08-24T00:30:34;5.90;;;3.50;;
32333;SDS011;18810;53.040;8.850;2023-08-24T00:33:00;5.43;;;3.35;;
32333;SDS011;18810;53.040;8.850;2023-08-24T00:35:26;5.40;;;3.20;;
32333;SDS011;18810;53.040;8.850;2023-08-24T00:37:51;5.72;;;3.53;;
32333;SDS011;18810;53.040;8.850;2023-08-24T00:40:17;7.47;;;3.45;;
32333;SDS011;18810;53.040;8.850;2023-08-24T00:42:44;4.95;;;3.60;;
32333;SDS011;18810;53.040;8.850;2023-08-24T00:45:13;5.03;;;3.33;;
32333;SDS011;18810;53.040;8.850;2023-08-24T00:47:40;5.68;;;3.58;;
32333;SDS011;18810;53.040;8.850;2023-08-24T00:50:10;7.40;;;3.58;;
32333;SDS011;18810;53.040;8.850;2023-08-24T00:52:38;9.07;;;4.07;;
32333;SDS011;18810;53.040;8.850;2023-08-24T00:55:05;8.02;;;3.63;;
32333;SDS011;18810;53.040;8.850;2023-08-24T00:57:32;5.85;;;4.00;;
32333;SDS011;18810;53.040;8.850;2023-08-24T00:59:59;5.25;;;3.75;;
32333;SDS011;18810;53.040;8.850;2023-08-24T01:02:26;7.43;;;3.92;;
32333;SDS011;18810;53.040;8.850;2023-08-24T01:04:52;8.85;;;3.90;;
32333;SDS011;18810;53.040;8.850;2023-08-24T01:07:18;6.47;;;3.30;;
32333;SDS011;18810;53.040;8.850;2023-08-24T01:09:45;7.18;;;4.07;;
32333;SDS011;18810;53.040;8.850;2023-08-24T01:17:58;11.63;;;4.13;;
32333;SDS011;18810;53.040;8.850;2023-08-24T01:20:29;5.43;;;4.43;;
32333;SDS011;18810;53.040;8.850;2023-08-24T01:22:57;6.75;;;4.05;;
32333;SDS011;18810;53.040;8.850;2023-08-24T01:28:18;6.55;;;3.95;;
32333;SDS011;18810;53.040;8.850;2023-08-24T01:30:46;9.05;;;4.22;;
32333;SDS011;18810;53.040;8.850;2023-08-24T01:33:12;7.63;;;4.10;;
32333;SDS011;18810;53.040;8.850;2023-08-24T01:35:39;8.38;;;4.07;;
32333;SDS011;18810;53.040;8.850;2023-08-24T01:38:06;12.82;;;4.80;;
32333;SDS011;18810;53.040;8.850;2023-08-24T01:43:25;8.82;;;4.35;;
32333;SDS011;18810;53.040;8.850;2023-08-24T01:45:59;7.03;;;4.15;;
32333;SDS011;18810;53.040;8.850;2023-08-24T01:48:28;8.18;;;4.10;;
32333;SDS011;18810;53.040;8.850;2023-08-24T01:50:55;4.22;;;3.40;;
32333;SDS011;18810;53.040;8.850;2023-08-24T01:53:22;6.88;;;4.15;;
32333;SDS011;18810;53.040;8.850;2023-08-24T01:55:48;7.07;;;3.97;;
32333;SDS011;18810;53.040;8.850;2023-08-24T01:58:14;5.53;;;3.63;;
32333;SDS011;18810;53.040;8.850;2023-08-24T02:00:40;6.93;;;3.95;;
32333;SDS011;18810;53.040;8.850;2023-08-24T02:03:06;4.38;;;3.80;;
32333;SDS011;18810;53.040;8.850;2023-08-24T02:05:32;5.50;;;3.55;;
32333;SDS011;18810;53.040;8.850;2023-08-24T02:07:57;7.07;;;3.60;;
32333;SDS011;18810;53.040;8.850;2023-08-24T02:10:24;5.53;;;3.20;;
32333;SDS011;18810;53.040;8.850;2023-08-24T02:12:51;6.13;;;4.10;;
32333;SDS011;18810;53.040;8.850;2023-08-24T02:15:16;5.35;;;3.58;;
32333;SDS011;18810;53.040;8.850;2023-08-24T02:17:42;3.92;;;3.45;;
32333;SDS011;18810;53.040;8.850;2023-08-24T02:20:08;4.82;;;4.07;;
32333;SDS011;18810;53.040;8.850;2023-08-24T02:22:36;5.05;;;3.72;;
32333;SDS011;18810;53.040;8.850;2023-08-24T02:25:02;6.22;;;4.20;;
32333;SDS011;18810;53.040;8.850;2023-08-24T02:27:30;5.50;;;3.97;;
32333;SDS011;18810;53.040;8.850;2023-08-24T02:29:56;5.57;;;3.72;;
32333;SDS011;18810;53.040;8.850;2023-08-24T02:32:22;5.30;;;3.65;;
32333;SDS011;18810;53.040;8.850;2023-08-24T02:34:48;7.43;;;3.63;;
32333;SDS011;18810;53.040;8.850;2023-08-24T02:37:13;5.93;;;4.30;;
32333;SDS011;18810;53.040;8.850;2023-08-24T02:39:39;7.85;;;4.25;;
32333;SDS011;18810;53.040;8.850;2023-08-24T02:42:05;8.88;;;4.30;;
32333;SDS011;18810;53.040;8.850;2023-08-24T02:44:30;8.23;;;4.15;;
32333;SDS011;18810;53.040;8.850;2023-08-24T02:46:56;5.68;;;4.15;;
32333;SDS011;18810;53.040;8.850;2023-08-24T02:49:22;9.40;;;4.78;;
32333;SDS011;18810;53.040;8.850;2023-08-24T02:51:48;9.30;;;4.65;;
32333;SDS011;18810;53.040;8.850;2023-08-24T02:54:14;6.35;;;4.93;;
32333;SDS011;18810;53.040;8.850;2023-08-24T02:56:39;8.02;;;4.55;;
32333;SDS011;18810;53.040;8.850;2023-08-24T02:59:05;7.93;;;4.85;;
32333;SDS011;18810;53.040;8.850;2023-08-24T03:01:31;5.65;;;4.55;;
32333;SDS011;18810;53.040;8.850;2023-08-24T03:03:57;8.63;;;4.85;;
32333;SDS011;18810;53.040;8.850;2023-08-24T03:06:23;8.77;;;4.80;;
32333;SDS011;18810;53.040;8.850;2023-08-24T03:08:49;8.18;;;4.40;;
32333;SDS011;18810;53.040;8.850;2023-08-24T03:11:15;9.90;;;4.70;;
32333;SDS011;18810;53.040;8.850;2023-08-24T03:13:40;7.50;;;4.70;;
32333;SDS011;18810;53.040;8.850;2023-08-24T03:16:06;5.80;;;4.40;;
32333;SDS011;18810;53.040;8.850;2023-08-24T03:18:33;8.27;;;4.70;;
32333;SDS011;18810;53.040;8.850;2023-08-24T03:20:59;8.07;;;4.97;;
32333;SDS011;18810;53.040;8.850;2023-08-24T03:23:25;6.90;;;4.93;;
32333;SDS011;18810;53.040;8.850;2023-08-24T03:25:51;10.07;;;4.57;;
32333;SDS011;18810;53.040;8.850;2023-08-24T03:28:17;8.45;;;4.68;;
32333;SDS011;18810;53.040;8.850;2023-08-24T03:30:50;9.00;;;4.97;;
32333;SDS011;18810;53.040;8.850;2023-08-24T03:33:16;7.25;;;4.57;;
32333;SDS011;18810;53.040;8.850;2023-08-24T03:35:42;6.80;;;4.57;;
32333;SDS011;18810;53.040;8.850;2023-08-24T03:38:08;8.25;;;4.63;;
32333;SDS011;18810;53.040;8.850;2023-08-24T03:40:34;6.38;;;4.93;;
32333;SDS011;18810;53.040;8.850;2023-08-24T03:43:03;9.13;;;5.57;;
32333;SDS011;18810;53.040;8.850;2023-08-24T03:45:29;10.02;;;5.38;;
32333;SDS011;18810;53.040;8.850;2023-08-24T03:47:55;10.45;;;5.63;;
32333;SDS011;18810;53.040;8.850;2023-08-24T03:50:21;6.40;;;5.15;;
32333;SDS011;18810;53.040;8.850;2023-08-24T03:52:50;10.20;;;5.55;;
32333;SDS011;18810;53.040;8.850;2023-08-24T03:55:16;7.32;;;4.85;;
32333;SDS011;18810;53.040;8.850;2023-08-24T03:57:42;8.63;;;4.35;;
32333;SDS011;18810;53.040;8.850;2023-08-24T04:00:08;6.80;;;5.50;;
32333;SDS011;18810;53.040;8.850;2023-08-24T04:02:46;7.82;;;5.10;;
32333;SDS011;18810;53.040;8.850;2023-08-24T04:05:12;6.85;;;4.57;;
32333;SDS011;18810;53.040;8.850;2023-08-24T04:07:37;6.80;;;4.60;;
32333;SDS011;18810;53.040;8.850;2023-08-24T04:10:05;7.20;;;4.75;;
32333;SDS011;18810;53.040;8.850;2023-08-24T04:12:31;10.77;;;6.03;;
32333;SDS011;18810;53.040;8.850;2023-08-24T04:14:57;11.55;;;4.95;;
32333;SDS011;18810;53.040;8.850;2023-08-24T04:17:24;9.38;;;5.57;;
32333;SDS011;18810;53.040;8.850;2023-08-24T04:19:50;7.22;;;5.30;;
32333;SDS011;18810;53.040;8.850;2023-08-24T04:22:15;7.05;;;4.85;;
32333;SDS011;18810;53.040;8.850;2023-08-24T04:24:41;8.00;;;5.97;;
32333;SDS011;18810;53.040;8.850;2023-08-24T04:27:07;9.80;;;5.75;;
32333;SDS011;18810;53.040;8.850;2023-08-24T04:29:33;8.73;;;5.47;;
32333;SDS011;18810;53.040;8.850;2023-08-24T04:31:58;9.13;;;5.95;;
32333;SDS011;18810;53.040;8.850;2023-08-24T04:34:24;11.80;;;6.10;;
32333;SDS011;18810;53.040;8.850;2023-08-24T04:36:50;9.40;;;6.28;;
32333;SDS011;18810;53.040;8.850;2023-08-24T04:39:15;6.93;;;5.07;;
32333;SDS011;18810;53.040;8.850;2023-08-24T04:41:43;7.18;;;5.03;;
32333;SDS011;18810;53.040;8.850;2023-08-24T04:44:09;7.57;;;5.57;;
32333;SDS011;18810;53.040;8.850;2023-08-24T04:46:35;8.65;;;5.32;;
32333;SDS011;18810;53.040;8.850;2023-08-24T04:49:01;9.25;;;6.03;;
32333;SDS011;18810;53.040;8.850;2023-08-24T04:51:27;10.95;;;6.60;;
32333;SDS011;18810;53.040;8.850;2023-08-24T04:53:54;13.45;;;7.13;;
32333;SDS011;18810;53.040;8.850;2023-08-24T04:56:19;9.38;;;6.32;;
32333;SDS011;18810;53.040;8.850;2023-08-24T04:58:54;8.77;;;6.10;;
32333;SDS011;18810;53.040;8.850;2023-08-24T05:01:22;14.98;;;7.47;;
32333;SDS011;18810;53.040;8.850;2023-08-24T05:03:48;11.82;;;6.30;;
32333;SDS011;18810;53.040;8.850;2023-08-24T05:06:14;11.95;;;6.07;;
32333;SDS011;18810;53.040;8.850;2023-08-24T05:08:39;10.07;;;6.40;;
32333;SDS011;18810;53.040;8.850;2023-08-24T05:11:16;8.90;;;6.30;;
32333;SDS011;18810;53.040;8.850;2023-08-24T05:13:46;11.68;;;6.70;;
32333;SDS011;18810;53.040;8.850;2023-08-24T05:16:12;11.02;;;6.80;;
32333;SDS011;18810;53.040;8.850;2023-08-24T05:18:38;12.77;;;7.20;;
32333;SDS011;18810;53.040;8.850;2023-08-24T05:21:04;14.52;;;7.88;;
32333;SDS011;18810;53.040;8.850;2023-08-24T05:23:31;13.68;;;7.20;;
32333;SDS011;18810;53.040;8.850;2023-08-24T05:25:58;13.93;;;7.30;;
32333;SDS011;18810;53.040;8.850;2023-08-24T05:28:25;12.32;;;7.50;;
32333;SDS011;18810;53.040;8.850;2023-08-24T05:30:51;14.00;;;7.88;;
32333;SDS011;18810;53.040;8.850;2023-08-24T05:33:17;12.70;;;8.25;;
32333;SDS011;18810;53.040;8.850;2023-08-24T05:35:44;9.57;;;6.65;;
32333;SDS011;18810;53.040;8.850;2023-08-24T05:38:09;7.75;;;5.88;;
32333;SDS011;18810;53.040;8.850;2023-08-24T05:40:35;10.30;;;5.90;;
32333;SDS011;18810;53.040;8.850;2023-08-24T05:43:02;10.32;;;6.50;;
32333;SDS011;18810;53.040;8.850;2023-08-24T05:45:28;12.43;;;7.07;;
32333;SDS011;18810;53.040;8.850;2023-08-24T05:47:54;11.20;;;7.88;;
32333;SDS011;18810;53.040;8.850;2023-08-24T05:50:19;14.75;;;7.88;;
32333;SDS011;18810;53.040;8.850;2023-08-24T05:52:45;9.13;;;8.10;;
32333;SDS011;18810;53.040;8.850;2023-08-24T05:55:11;12.23;;;7.90;;
32333;SDS011;18810;53.040;8.850;2023-08-24T05:57:36;13.88;;;7.72;;
32333;SDS011;18810;53.040;8.850;2023-08-24T06:00:03;11.70;;;8.15;;
32333;SDS011;18810;53.040;8.850;2023-08-24T06:02:34;12.77;;;7.82;;
32333;SDS011;18810;53.040;8.850;2023-08-24T06:05:01;14.73;;;10.18;;
32333;SDS011;18810;53.040;8.850;2023-08-24T06:07:27;11.55;;;8.55;;
32333;SDS011;18810;53.040;8.850;2023-08-24T06:09:53;15.32;;;8.38;;
32333;SDS011;18810;53.040;8.850;2023-08-24T06:12:19;13.77;;;9.70;;
32333;SDS011;18810;53.040;8.850;2023-08-24T06:14:45;11.05;;;7.72;;
32333;SDS011;18810;53.040;8.850;2023-08-24T06:17:10;12.32;;;8.65;;
32333;SDS011;18810;53.040;8.850;2023-08-24T06:19:36;11.48;;;9.07;;
32333;SDS011;18810;53.040;8.850;2023-08-24T06:22:02;9.18;;;7.65;;
32333;SDS011;18810;53.040;8.850;2023-08-24T06:24:27;23.15;;;10.48;;
32333;SDS011;18810;53.040;8.850;2023-08-24T06:26:53;8.68;;;6.60;;
32333;SDS011;18810;53.040;8.850;2023-08-24T06:29:19;9.43;;;7.10;;
32333;SDS011;18810;53.040;8.850;2023-08-24T06:31:45;10.40;;;7.30;;
32333;SDS011;18810;53.040;8.850;2023-08-24T06:34:10;11.00;;;7.18;;
32333;SDS011;18810;53.040;8.850;2023-08-24T06:36:36;14.07;;;8.18;;
32333;SDS011;18810;53.040;8.850;2023-08-24T06:39:02;13.55;;;8.93;;
32333;SDS011;18810;53.040;8.850;2023-08-24T06:41:32;10.15;;;7.75;;
32333;SDS011;18810;53.040;8.850;2023-08-24T06:43:59;13.13;;;8.70;;
32333;SDS011;18810;53.040;8.850;2023-08-24T06:46:24;10.07;;;7.45;;
32333;SDS011;18810;53.040;8.850;2023-08-24T06:48:50;11.88;;;8.60;;
32333;SDS011;18810;53.040;8.850;2023-08-24T06:51:16;11.55;;;7.53;;
32333;SDS011;18810;53.040;8.850;2023-08-24T06:53:41;13.18;;;8.18;;
32333;SDS011;18810;53.040;8.850;2023-08-24T06:56:07;9.82;;;6.60;;
32333;SDS011;18810;53.040;8.850;2023-08-24T06:58:34;10.88;;;6.07;;
32333;SDS011;18810;53.040;8.850;2023-08-24T07:01:00;8.48;;;5.35;;
32333;SDS011;18810;53.040;8.850;2023-08-24T07:03:26;7.85;;;4.45;;
32333;SDS011;18810;53.040;8.850;2023-08-24T07:05:52;10.48;;;5.00;;
32333;SDS011;18810;53.040;8.850;2023-08-24T07:08:17;7.18;;;4.45;;
32333;SDS011;18810;53.040;8.850;2023-08-24T07:10:43;8.27;;;4.00;;
32333;SDS011;18810;53.040;8.850;2023-08-24T07:13:09;8.68;;;3.88;;
32333;SDS011;18810;53.040;8.850;2023-08-24T07:15:35;7.13;;;4.40;;
32333;SDS011;18810;53.040;8.850;2023-08-24T07:18:01;7.93;;;3.22;;
32333;SDS011;18810;53.040;8.850;2023-08-24T07:20:27;4.70;;;3.03;;
32333;SDS011;18810;53.040;8.850;2023-08-24T07:22:53;3.42;;;3.03;;
32333;SDS011;18810;53.040;8.850;2023-08-24T07:25:19;5.70;;;2.97;;
32333;SDS011;18810;53.040;8.850;2023-08-24T07:27:47;5.97;;;3.80;;
32333;SDS011;18810;53.040;8.850;2023-08-24T07:30:13;6.25;;;3.67;;
32333;SDS011;18810;53.040;8.850;2023-08-24T07:32:39;6.93;;;3.42;;
32333;SDS011;18810;53.040;8.850;2023-08-24T07:35:06;6.95;;;3.90;;
32333;SDS011;18810;53.040;8.850;2023-08-24T07:37:32;11.10;;;4.88;;
32333;SDS011;18810;53.040;8.850;2023-08-24T07:39:58;7.22;;;4.80;;
32333;SDS011;18810;53.040;8.850;2023-08-24T07:42:23;6.43;;;5.20;;
32333;SDS011;18810;53.040;8.850;2023-08-24T07:44:49;10.25;;;5.75;;
32333;SDS011;18810;53.040;8.850;2023-08-24T07:47:15;8.73;;;5.22;;
32333;SDS011;18810;53.040;8.850;2023-08-24T07:49:41;8.57;;;5.82;;
32333;SDS011;18810;53.040;8.850;2023-08-24T07:52:12;9.75;;;5.68;;
32333;SDS011;18810;53.040;8.850;2023-08-24T07:54:38;9.93;;;6.38;;
32333;SDS011;18810;53.040;8.850;2023-08-24T07:57:05;8.30;;;6.32;;
32333;SDS011;18810;53.040;8.850;2023-08-24T07:59:31;10.95;;;6.03;;
32333;SDS011;18810;53.040;8.850;2023-08-24T08:01:57;8.77;;;5.75;;
32333;SDS011;18810;53.040;8.850;2023-08-24T08:04:22;10.18;;;5.32;;
32333;SDS011;18810;53.040;8.850;2023-08-24T08:06:48;7.30;;;4.25;;
32333;SDS011;18810;53.040;8.850;2023-08-24T08:09:14;8.73;;;5.18;;
32333;SDS011;18810;53.040;8.850;2023-08-24T08:11:39;11.50;;;5.70;;
32333;SDS011;18810;53.040;8.850;2023-08-24T08:14:05;6.40;;;4.50;;
32333;SDS011;18810;53.040;8.850;2023-08-24T08:16:31;11.82;;;5.20;;
32333;SDS011;18810;53.040;8.850;2023-08-24T08:18:56;9.57;;;4.20;;
32333;SDS011;18810;53.040;8.850;2023-08-24T08:21:22;10.82;;;4.78;;
32333;SDS011;18810;53.040;8.850;2023-08-24T08:23:48;8.45;;;4.60;;
32333;SDS011;18810;53.040;8.850;2023-08-24T08:26:15;5.68;;;2.97;;
32333;SDS011;18810;53.040;8.850;2023-08-24T08:28:41;6.68;;;3.72;;
32333;SDS011;18810;53.040;8.850;2023-08-24T08:31:07;7.22;;;4.53;;
32333;SDS011;18810;53.040;8.850;2023-08-24T08:33:33;6.15;;;3.75;;
32333;SDS011;18810;53.040;8.850;2023-08-24T08:35:59;7.00;;;4.90;;
32333;SDS011;18810;53.040;8.850;2023-08-24T08:38:25;11.25;;;5.03;;
32333;SDS011;18810;53.040;8.850;2023-08-24T08:40:54;8.02;;;5.18;;
32333;SDS011;18810;53.040;8.850;2023-08-24T08:45:51;9.05;;;5.85;;
32333;SDS011;18810;53.040;8.850;2023-08-24T08:48:20;8.70;;;5.72;;
32333;SDS011;18810;53.040;8.850;2023-08-24T08:50:49;9.27;;;5.95;;
32333;SDS011;18810;53.040;8.850;2023-08-24T08:53:16;10.63;;;5.30;;
32333;SDS011;18810;53.040;8.850;2023-08-24T08:55:42;8.68;;;5.20;;
32333;SDS011;18810;53.040;8.850;2023-08-24T08:58:09;8.75;;;5.60;;
32333;SDS011;18810;53.040;8.850;2023-08-24T09:00:36;9.60;;;5.53;;
32333;SDS011;18810;53.040;8.850;2023-08-24T09:03:02;7.47;;;5.15;;
32333;SDS011;18810;53.040;8.850;2023-08-24T09:05:30;8.75;;;5.20;;
32333;SDS011;18810;53.040;8.850;2023-08-24T09:07:57;6.25;;;4.97;;
32333;SDS011;18810;53.040;8.850;2023-08-24T09:10:24;7.35;;;4.20;;
32333;SDS011;18810;53.040;8.850;2023-08-24T09:12:50;5.50;;;3.47;;
32333;SDS011;18810;53.040;8.850;2023-08-24T09:15:26;7.72;;;5.00;;
32333;SDS011;18810;53.040;8.850;2023-08-24T09:17:53;8.32;;;4.00;;
32333;SDS011;18810;53.040;8.850;2023-08-24T09:20:27;8.30;;;4.20;;
32333;SDS011;18810;53.040;8.850;2023-08-24T09:22:54;5.55;;;3.80;;
32333;SDS011;18810;53.040;8.850;2023-08-24T09:25:22;6.35;;;4.13;;
32333;SDS011;18810;53.040;8.850;2023-08-24T09:30:32;5.85;;;3.95;;
32333;SDS011;18810;53.040;8.850;2023-08-24T09:33:03;7.88;;;3.67;;
32333;SDS011;18810;53.040;8.850;2023-08-24T09:35:37;8.85;;;5.13;;
32333;SDS011;18810;53.040;8.850;2023-08-24T09:38:19;6.15;;;3.70;;
32333;SDS011;18810;53.040;8.850;2023-08-24T09:40:46;7.28;;;4.07;;
32333;SDS011;18810;53.040;8.850;2023-08-24T09:43:13;6.30;;;4.28;;
32333;SDS011;18810;53.040;8.850;2023-08-24T09:45:47;6.25;;;4.03;;
32333;SDS011;18810;53.040;8.850;2023-08-24T09:48:16;5.10;;;3.85;;
32333;SDS011;18810;53.040;8.850;2023-08-24T09:50:43;9.25;;;4.75;;
32333;SDS011;18810;53.040;8.850;2023-08-24T09:53:11;7.80;;;4.00;;
32333;SDS011;18810;53.040;8.850;2023-08-24T09:58:18;3.90;;;3.50;;
32333;SDS011;18810;53.040;8.850;2023-08-24T10:00:45;5.07;;;3.10;;
32333;SDS011;18810;53.040;8.850;2023-08-24T10:03:21;5.97;;;3.88;;
32333;SDS011;18810;53.040;8.850;2023-08-24T10:05:50;7.53;;;4.75;;
32333;SDS011;18810;53.040;8.850;2023-08-24T10:08:21;4.15;;;3.47;;
32333;SDS011;18810;53.040;8.850;2023-08-24T10:10:55;6.88;;;4.03;;
32333;SDS011;18810;53.040;8.850;2023-08-24T10:13:26;8.10;;;3.80;;
32333;SDS011;18810;53.040;8.850;2023-08-24T10:16:13;6.10;;;4.55;;
32333;SDS011;18810;53.040;8.850;2023-08-24T10:18:40;6.60;;;3.38;;
32333;SDS011;18810;53.040;8.850;2023-08-24T10:21:07;5.55;;;3.08;;
32333;SDS011;18810;53.040;8.850;2023-08-24T10:23:34;6.38;;;3.22;;
32333;SDS011;18810;53.040;8.850;2023-08-24T10:26:02;7.65;;;3.60;;
32333;SDS011;18810;53.040;8.850;2023-08-24T10:28:28;6.82;;;3.60;;
32333;SDS011;18810;53.040;8.850;2023-08-24T10:30:55;6.72;;;3.60;;
32333;SDS011;18810;53.040;8.850;2023-08-24T10:33:23;8.27;;;4.32;;
32333;SDS011;18810;53.040;8.850;2023-08-24T10:35:48;6.30;;;3.85;;
32333;SDS011;18810;53.040;8.850;2023-08-24T10:40:50;4.55;;;2.70;;
32333;SDS011;18810;53.040;8.850;2023-08-24T10:43:16;5.75;;;3.40;;
32333;SDS011;18810;53.040;8.850;2023-08-24T10:48:24;5.60;;;3.28;;
32333;SDS011;18810;53.040;8.850;2023-08-24T10:53:53;6.32;;;3.80;;
32333;SDS011;18810;53.040;8.850;2023-08-24T10:56:34;8.15;;;3.83;;
32333;SDS011;18810;53.040;8.850;2023-08-24T10:59:10;4.57;;;3.47;;
32333;SDS011;18810;53.040;8.850;2023-08-24T11:01:38;7.43;;;3.50;;
32333;SDS011;18810;53.040;8.850;2023-08-24T11:04:05;5.35;;;3.50;;
32333;SDS011;18810;53.040;8.850;2023-08-24T11:06:34;5.43;;;3.45;;
32333;SDS011;18810;53.040;8.850;2023-08-24T11:09:16;6.22;;;4.00;;
32333;SDS011;18810;53.040;8.850;2023-08-24T11:11:42;4.32;;;3.47;;
32333;SDS011;18810;53.040;8.850;2023-08-24T11:14:28;6.53;;;3.10;;
32333;SDS011;18810;53.040;8.850;2023-08-24T11:17:00;5.45;;;3.60;;
32333;SDS011;18810;53.040;8.850;2023-08-24T11:19:46;7.25;;;3.45;;
32333;SDS011;18810;53.040;8.850;2023-08-24T11:22:17;7.63;;;3.42;;
32333;SDS011;18810;53.040;8.850;2023-08-24T11:24:43;7.47;;;3.78;;
32333;SDS011;18810;53.040;8.850;2023-08-24T11:27:12;4.45;;;3.42;;
32333;SDS011;18810;53.040;8.850;2023-08-24T11:29:38;5.88;;;3.30;;
32333;SDS011;18810;53.040;8.850;2023-08-24T11:32:04;4.13;;;3.15;;
32333;SDS011;18810;53.040;8.850;2023-08-24T11:34:30;4.40;;;2.60;;
32333;SDS011;18810;53.040;8.850;2023-08-24T11:36:56;4.90;;;3.20;;
32333;SDS011;18810;53.040;8.850;2023-08-24T11:39:22;5.00;;;3.47;;
32333;SDS011;18810;53.040;8.850;2023-08-24T11:42:00;4.93;;;2.80;;
32333;SDS011;18810;53.040;8.850;2023-08-24T11:44:28;4.80;;;2.70;;
32333;SDS011;18810;53.040;8.850;2023-08-24T11:46:58;7.43;;;3.45;;
32333;SDS011;18810;53.040;8.850;2023-08-24T11:49:24;3.72;;;3.30;;
32333;SDS011;18810;53.040;8.850;2023-08-24T11:51:50;4.93;;;3.50;;
32333;SDS011;18810;53.040;8.850;2023-08-24T11:54:18;4.90;;;2.90;;
32333;SDS011;18810;53.040;8.850;2023-08-24T11:56:44;5.35;;;2.88;;
32333;SDS011;18810;53.040;8.850;2023-08-24T11:59:15;7.03;;;4.18;;
32333;SDS011;18810;53.040;8.850;2023-08-24T12:01:41;4.00;;;3.30;;
32333;SDS011;18810;53.040;8.850;2023-08-24T12:04:07;5.15;;;3.45;;
32333;SDS011;18810;53.040;8.850;2023-08-24T12:06:33;3.70;;;3.28;;
32333;SDS011;18810;53.040;8.850;2023-08-24T12:08:59;6.30;;;3.80;;
32333;SDS011;18810;53.040;8.850;2023-08-24T12:11:26;4.43;;;2.60;;
32333;SDS011;18810;53.040;8.850;2023-08-24T12:13:55;3.20;;;2.90;;
32333;SDS011;18810;53.040;8.850;2023-08-24T12:16:21;5.03;;;3.00;;
32333;SDS011;18810;53.040;8.850;2023-08-24T12:18:58;3.10;;;2.80;;
32333;SDS011;18810;53.040;8.850;2023-08-24T12:21:25;5.95;;;2.88;;
32333;SDS011;18810;53.040;8.850;2023-08-24T12:24:04;5.45;;;3.10;;
32333;SDS011;18810;53.040;8.850;2023-08-24T12:26:31;5.40;;;3.15;;
32333;SDS011;18810;53.040;8.850;2023-08-24T12:29:04;5.50;;;3.40;;
32333;SDS011;18810;53.040;8.850;2023-08-24T12:31:32;4.97;;;2.90;;
32333;SDS011;18810;53.040;8.850;2023-08-24T12:33:59;6.25;;;3.30;;
32333;SDS011;18810;53.040;8.850;2023-08-24T12:36:26;4.72;;;3.17;;
32333;SDS011;18810;53.040;8.850;2023-08-24T12:38:51;4.32;;;3.13;;
32333;SDS011;18810;53.040;8.850;2023-08-24T12:41:17;4.30;;;2.80;;
32333;SDS011;18810;53.040;8.850;2023-08-24T12:43:43;5.63;;;3.33;;
32333;SDS011;18810;53.040;8.850;2023-08-24T12:46:08;5.78;;;3.05;;
32333;SDS011;18810;53.040;8.850;2023-08-24T12:48:34;13.18;;;4.00;;
32333;SDS011;18810;53.040;8.850;2023-08-24T12:51:00;3.97;;;3.08;;
32333;SDS011;18810;53.040;8.850;2023-08-24T12:53:26;3.10;;;2.55;;
32333;SDS011;18810;53.040;8.850;2023-08-24T12:55:51;3.10;;;2.35;;
32333;SDS011;18810;53.040;8.850;2023-08-24T12:58:17;3.83;;;2.75;;
32333;SDS011;18810;53.040;8.850;2023-08-24T13:00:45;7.53;;;3.00;;
32333;SDS011;18810;53.040;8.850;2023-08-24T13:03:11;5.95;;;3.10;;
32333;SDS011;18810;53.040;8.850;2023-08-24T13:05:36;3.95;;;2.65;;
32333;SDS011;18810;53.040;8.850;2023-08-24T13:08:02;5.10;;;3.17;;
32333;SDS011;18810;53.040;8.850;2023-08-24T13:10:28;5.20;;;3.42;;
32333;SDS011;18810;53.040;8.850;2023-08-24T13:12:54;3.58;;;2.60;;
32333;SDS011;18810;53.040;8.850;2023-08-24T13:15:21;4.78;;;2.58;;
32333;SDS011;18810;53.040;8.850;2023-08-24T13:17:47;3.33;;;2.80;;
32333;SDS011;18810;53.040;8.850;2023-08-24T13:20:12;3.55;;;2.88;;
32333;SDS011;18810;53.040;8.850;2023-08-24T13:22:38;4.47;;;3.00;;
32333;SDS011;18810;53.040;8.850;2023-08-24T13:25:04;5.60;;;2.70;;
32333;SDS011;18810;53.040;8.850;2023-08-24T13:27:30;4.05;;;2.60;;
32333;SDS011;18810;53.040;8.850;2023-08-24T13:29:59;2.67;;;2.47;;
32333;SDS011;18810;53.040;8.850;2023-08-24T13:32:25;4.73;;;2.70;;
32333;SDS011;18810;53.040;8.850;2023-08-24T13:34:51;4.18;;;2.72;;
32333;SDS011;18810;53.040;8.850;2023-08-24T13:37:20;2.85;;;2.55;;
32333;SDS011;18810;53.040;8.850;2023-08-24T13:39:45;3.75;;;2.63;;
32333;SDS011;18810;53.040;8.850;2023-08-24T13:42:11;4.43;;;2.80;;
32333;SDS011;18810;53.040;8.850;2023-08-24T13:44:38;4.75;;;2.83;;
32333;SDS011;18810;53.040;8.850;2023-08-24T13:47:04;4.00;;;3.00;;
32333;SDS011;18810;53.040;8.850;2023-08-24T13:49:30;3.85;;;2.97;;
32333;SDS011;18810;53.040;8.850;2023-08-24T13:51:55;3.72;;;2.75;;
32333;SDS011;18810;53.040;8.850;2023-08-24T13:54:21;3.20;;;2.53;;
32333;SDS011;18810;53.040;8.850;2023-08-24T13:56:47;7.22;;;2.70;;
32333;SDS011;18810;53.040;8.850;2023-08-24T13:59:14;3.88;;;2.45;;
32333;SDS011;18810;53.040;8.850;2023-08-24T14:01:40;4.85;;;2.72;;
32333;SDS011;18810;53.040;8.850;2023-08-24T14:04:07;4.47;;;2.40;;
32333;SDS011;18810;53.040;8.850;2023-08-24T14:06:33;4.40;;;2.60;;
32333;SDS011;18810;53.040;8.850;2023-08-24T14:09:02;3.58;;;2.47;;
32333;SDS011;18810;53.040;8.850;2023-08-24T14:11:29;5.45;;;2.50;;
32333;SDS011;18810;53.040;8.850;2023-08-24T14:13:55;5.13;;;2.50;;
32333;SDS011;18810;53.040;8.850;2023-08-24T14:16:22;5.30;;;2.60;;
32333;SDS011;18810;53.040;8.850;2023-08-24T14:18:48;4.78;;;2.50;;
32333;SDS011;18810;53.040;8.850;2023-08-24T14:21:14;5.35;;;2.95;;
32333;SDS011;18810;53.040;8.850;2023-08-24T14:23:40;4.68;;;2.53;;
32333;SDS011;18810;53.040;8.850;2023-08-24T14:26:06;3.60;;;2.42;;
32333;SDS011;18810;53.040;8.850;2023-08-24T14:28:48;3.92;;;2.30;;
32333;SDS011;18810;53.040;8.850;2023-08-24T14:31:19;4.30;;;2.65;;
32333;SDS011;18810;53.040;8.850;2023-08-24T14:33:48;4.43;;;2.45;;
32333;SDS011;18810;53.040;8.850;2023-08-24T14:36:15;3.13;;;2.47;;
32333;SDS011;18810;53.040;8.850;2023-08-24T14:38:41;3.78;;;2.95;;
32333;SDS011;18810;53.040;8.850;2023-08-24T14:41:08;3.85;;;2.83;;
32333;SDS011;18810;53.040;8.850;2023-08-24T14:43:35;3.97;;;2.70;;
32333;SDS011;18810;53.040;8.850;2023-08-24T14:46:01;4.22;;;3.03;;
32333;SDS011;18810;53.040;8.850;2023-08-24T14:48:27;4.68;;;3.17;;
32333;SDS011;18810;53.040;8.850;2023-08-24T14:50:53;4.22;;;2.95;;
32333;SDS011;18810;53.040;8.850;2023-08-24T14:53:19;2.90;;;2.60;;
32333;SDS011;18810;53.040;8.850;2023-08-24T14:55:45;5.18;;;3.00;;
32333;SDS011;18810;53.040;8.850;2023-08-24T14:58:11;3.97;;;2.80;;
32333;SDS011;18810;53.040;8.850;2023-08-24T15:00:36;4.55;;;2.90;;
32333;SDS011;18810;53.040;8.850;2023-08-24T15:03:02;5.72;;;2.47;;
32333;SDS011;18810;53.040;8.850;2023-08-24T15:05:28;4.72;;;2.70;;
32333;SDS011;18810;53.040;8.850;2023-08-24T15:07:54;3.47;;;2.83;;
32333;SDS011;18810;53.040;8.850;2023-08-24T15:10:20;3.80;;;2.47;;
32333;SDS011;18810;53.040;8.850;2023-08-24T15:12:46;4.13;;;2.88;;